createdAt,value
2024-02-13T00:00:59.441Z,3.28
2024-02-13T00:01:59.059Z,3.07
2024-02-13T00:02:59.202Z,3.21
2024-02-13T00:04:00.554Z,3.18
2024-02-13T00:04:59.045Z,3.10
2024-02-13T00:05:59.923Z,3.13
2024-02-13T00:06:59.041Z,3.20
2024-02-13T00:07:59.170Z,3.15
2024-02-13T00:09:32.680Z,3.21
2024-02-13T00:13:07.108Z,3.21
2024-02-13T00:14:07.181Z,3.13
2024-02-13T00:15:08.535Z,3.25
2024-02-13T00:25:00.418Z,3.20
2024-02-13T00:26:01.793Z,3.05
2024-02-13T00:27:01.833Z,3.05
2024-02-13T00:28:01.588Z,2.98
2024-02-13T00:29:01.370Z,3.06
2024-02-13T00:30:01.510Z,2.89
2024-02-13T00:31:01.378Z,2.95
2024-02-13T00:32:01.304Z,2.98
2024-02-13T00:33:01.528Z,2.94
2024-02-13T00:34:01.393Z,2.92
2024-02-13T00:35:01.356Z,2.95
2024-02-13T00:36:01.443Z,2.95
2024-02-13T00:37:01.314Z,3.02
2024-02-13T00:38:01.499Z,2.84
2024-02-13T00:39:01.459Z,2.87
2024-02-13T00:40:01.508Z,2.81
2024-02-13T00:41:01.534Z,2.82
2024-02-13T00:42:02.249Z,2.64
2024-02-13T00:43:01.549Z,2.67
2024-02-13T00:44:01.403Z,2.52
2024-02-13T00:45:02.166Z,2.56
2024-02-13T00:46:02.598Z,2.51
2024-02-13T00:54:51.639Z,2.56
2024-02-13T00:55:52.992Z,2.59
2024-02-13T00:56:54.380Z,2.63
2024-02-13T00:57:52.977Z,2.73
2024-02-13T00:58:52.851Z,2.76
2024-02-13T00:59:52.927Z,2.74
2024-02-13T01:00:52.762Z,2.87
2024-02-13T01:01:52.721Z,2.85
2024-02-13T01:02:52.849Z,2.91
2024-02-13T01:03:52.757Z,2.94
2024-02-13T01:04:52.659Z,2.89
2024-02-13T01:05:54.040Z,2.92
2024-02-13T01:06:52.747Z,2.95
2024-02-13T01:07:53.309Z,2.97
2024-02-13T01:08:53.176Z,2.82
2024-02-13T01:09:53.317Z,2.91
2024-02-13T01:10:52.954Z,2.84
2024-02-13T01:11:53.370Z,2.82
2024-02-13T01:12:52.849Z,2.94
2024-02-13T01:13:52.724Z,2.82
2024-02-13T01:14:53.441Z,2.84
2024-02-13T01:15:52.777Z,2.92
2024-02-13T01:16:53.355Z,2.71
2024-02-13T01:17:52.835Z,2.66
2024-02-13T01:18:53.112Z,2.67
2024-02-13T01:19:52.584Z,2.69
2024-02-13T01:20:53.063Z,2.67
2024-02-13T01:21:52.724Z,2.71
2024-02-13T01:22:52.671Z,2.69
2024-02-13T01:23:52.754Z,2.76
2024-02-13T01:24:52.727Z,2.81
2024-02-13T01:25:53.354Z,2.88
2024-02-13T01:26:52.819Z,2.91
2024-02-13T01:27:52.741Z,2.94
2024-02-13T01:28:52.653Z,2.97
2024-02-13T01:30:26.949Z,3.05
2024-02-13T01:30:52.734Z,3.00
2024-02-13T01:32:25.217Z,3.10
2024-02-13T01:33:29.587Z,3.03
2024-02-13T01:34:25.986Z,2.95
2024-02-13T01:35:26.248Z,3.06
2024-02-13T01:35:52.814Z,3.12
2024-02-13T01:37:26.806Z,3.09
2024-02-13T01:37:52.709Z,2.94
2024-02-13T01:39:25.740Z,3.21
2024-02-13T01:40:27.611Z,3.12
2024-02-13T01:41:35.347Z,3.10
2024-02-13T01:42:28.249Z,3.12
2024-02-13T01:42:52.858Z,3.09
2024-02-13T01:43:52.809Z,3.20
2024-02-13T01:44:52.969Z,3.18
2024-02-13T01:45:52.533Z,3.15
2024-02-13T01:46:52.496Z,3.07
2024-02-13T01:47:52.700Z,3.27
2024-02-13T01:48:53.058Z,3.21
2024-02-13T01:49:52.525Z,3.15
2024-02-13T01:50:52.537Z,3.15
2024-02-13T01:51:52.993Z,2.97
2024-02-13T01:52:52.999Z,3.09
2024-02-13T01:53:52.600Z,3.05
2024-02-13T01:54:52.598Z,3.07
2024-02-13T01:55:53.521Z,3.07
2024-02-13T01:56:52.634Z,2.98
2024-02-13T01:57:52.497Z,3.12
2024-02-13T01:58:52.529Z,3.03
2024-02-13T01:59:52.538Z,3.07
2024-02-13T02:00:52.637Z,3.10
2024-02-13T02:01:52.467Z,3.07
2024-02-13T02:02:52.575Z,3.09
2024-02-13T02:03:52.998Z,3.07
2024-02-13T02:04:52.407Z,3.07
2024-02-13T02:05:52.559Z,3.25
2024-02-13T02:06:52.734Z,3.30
2024-02-13T02:07:52.376Z,3.20
2024-02-13T02:08:52.344Z,3.21
2024-02-13T02:09:52.274Z,3.23
2024-02-13T02:10:52.232Z,3.42
2024-02-13T02:11:52.495Z,3.43
2024-02-13T02:12:52.256Z,3.34
2024-02-13T02:13:53.205Z,3.34
2024-02-13T02:14:52.306Z,3.43
2024-02-13T02:15:52.222Z,3.33
2024-02-13T04:10:25.794Z,3.21
2024-02-13T04:12:55.465Z,3.24
2024-02-13T04:12:57.577Z,3.18
2024-02-13T04:13:57.750Z,3.23
2024-02-13T04:14:57.533Z,3.25
2024-02-13T04:15:57.516Z,3.25
2024-02-13T04:16:57.287Z,3.16
2024-02-13T04:17:57.969Z,3.33
2024-02-13T04:18:57.675Z,3.34
2024-02-13T04:19:57.303Z,3.27
2024-02-13T04:20:57.481Z,3.24
2024-02-13T04:21:58.363Z,3.24
2024-02-13T04:22:57.294Z,3.27
2024-02-13T04:23:57.502Z,3.36
2024-02-13T04:24:57.310Z,3.24
2024-02-13T04:25:57.976Z,3.24
2024-02-13T04:26:57.957Z,3.23
2024-02-13T04:30:29.112Z,3.16
2024-02-13T04:31:29.339Z,3.16
2024-02-13T04:32:30.836Z,3.18
2024-02-13T04:33:30.904Z,3.05
2024-02-13T04:34:31.460Z,3.13
2024-02-13T04:35:30.393Z,3.09
2024-02-13T04:36:30.318Z,3.27
2024-02-13T04:37:30.334Z,3.15
2024-02-13T04:38:30.351Z,3.05
2024-02-13T04:39:30.365Z,3.13
2024-02-13T04:40:30.309Z,3.09
2024-02-13T04:41:30.775Z,3.07
2024-02-13T04:42:31.296Z,3.09
2024-02-13T04:59:13.166Z,2.95
2024-02-13T05:00:11.199Z,3.00
2024-02-13T05:01:11.083Z,2.94
2024-02-13T05:02:11.067Z,2.91
2024-02-13T05:03:10.885Z,2.97
2024-02-13T05:04:11.383Z,2.77
2024-02-13T05:05:10.933Z,2.88
2024-02-13T05:06:11.022Z,2.89
2024-02-13T05:07:11.656Z,2.84
2024-02-13T05:08:11.777Z,2.87
2024-02-13T05:09:10.687Z,2.84
2024-02-13T05:10:10.872Z,2.85
2024-02-13T05:11:10.789Z,2.82
2024-02-13T05:12:10.727Z,2.81
2024-02-13T05:13:10.754Z,2.92
2024-02-13T05:14:10.716Z,2.74
2024-02-13T05:15:10.728Z,2.74
2024-02-13T05:16:10.695Z,2.74
2024-02-13T05:17:10.702Z,2.70
2024-02-13T05:18:10.876Z,2.73
2024-02-13T05:19:10.768Z,2.61
2024-02-13T05:20:10.914Z,2.70
2024-02-13T05:21:11.142Z,2.58
2024-02-13T05:22:10.776Z,2.53
2024-02-13T05:23:10.775Z,2.61
2024-02-13T05:24:11.703Z,2.66
2024-02-13T05:25:10.774Z,2.70
2024-02-13T05:26:10.803Z,2.56
2024-02-13T05:27:10.775Z,2.58
2024-02-13T05:28:10.766Z,2.69
2024-02-13T05:29:10.818Z,2.64
2024-02-13T05:30:10.801Z,2.63
2024-02-13T05:31:10.725Z,2.69
2024-02-13T05:32:10.667Z,2.59
2024-02-13T05:33:10.831Z,2.67
2024-02-13T05:34:10.750Z,2.59
2024-02-13T05:35:11.663Z,2.58
2024-02-13T05:36:10.659Z,2.61
2024-02-13T05:37:11.046Z,2.66
2024-02-13T05:49:51.352Z,2.58
2024-02-13T05:50:53.058Z,2.63
2024-02-13T05:51:52.737Z,2.55
2024-02-13T05:52:52.534Z,2.61
2024-02-13T05:53:53.311Z,2.61
2024-02-13T05:54:52.699Z,2.53
2024-02-13T05:55:52.592Z,2.63
